Time;durP1;ratioP1;P1;durP2;ratioP2;P2;SDS_P1;SDS_P2;PMS_P1;PMS_P2;Temp;Humidity;BMP_temperature;BMP_pressure;BME280_temperature;BME280_humidity;BME280_pressure;Samples;Min_cycle;Max_cycle;Signal;HPM_P1;HPM_P2
2023/05/30 00:01:48;;;;;;;14.40;4.18;;;10.10;99.90;;;;;;4899168;29;20044;-86
2023/05/30 00:04:14;;;;;;;15.00;4.00;;;10.10;99.90;;;;;;4898840;29;20068;-85
2023/05/30 00:06:39;;;;;;;16.10;4.10;;;10.20;99.90;;;;;;4898567;29;20100;-87
2023/05/30 00:09:05;;;;;;;15.90;3.78;;;10.20;99.90;;;;;;4899276;29;20056;-86
2023/05/30 00:11:31;;;;;;;17.38;4.00;;;10.60;99.90;;;;;;4899648;29;20405;-86
2023/05/30 00:13:57;;;;;;;17.98;4.22;;;10.30;99.90;;;;;;4898821;29;20425;-85
2023/05/30 00:16:23;;;;;;;13.65;3.58;;;10.90;99.90;;;;;;4898580;29;20480;-86
2023/05/30 00:18:52;;;;;;;15.07;3.78;;;10.30;99.90;;;;;;4899558;29;20048;-86
2023/05/30 00:21:19;;;;;;;13.82;4.20;;;11.20;99.90;;;;;;4899222;29;20051;-85
2023/05/30 00:23:45;;;;;;;11.65;3.50;;;10.40;99.90;;;;;;4898920;29;20175;-85
2023/05/30 00:26:12;;;;;;;12.68;3.40;;;10.40;99.90;;;;;;4897637;29;20528;-85
2023/05/30 00:28:38;;;;;;;14.10;3.70;;;10.30;99.90;;;;;;4897859;29;20409;-85
2023/05/30 00:31:05;;;;;;;15.07;3.65;;;11.10;99.90;;;;;;4898103;29;20090;-85
2023/05/30 00:33:31;;;;;;;12.13;3.50;;;10.30;99.90;;;;;;4899090;29;20132;-86
2023/05/30 00:35:56;;;;;;;11.48;3.53;;;10.30;99.90;;;;;;4897627;29;20084;-85
2023/05/30 00:38:22;;;;;;;13.57;3.63;;;10.20;99.90;;;;;;4898842;29;20053;-86
2023/05/30 00:40:47;;;;;;;11.40;3.80;;;10.40;99.90;;;;;;4899225;29;20118;-85
2023/05/30 00:43:15;;;;;;;13.13;3.72;;;10.20;99.90;;;;;;4896759;29;20040;-86
2023/05/30 00:45:41;;;;;;;11.40;3.33;;;10.20;99.90;;;;;;4897657;29;20112;-86
2023/05/30 00:48:06;;;;;;;18.20;4.10;;;10.10;99.90;;;;;;4898488;29;20085;-87
2023/05/30 00:50:33;;;;;;;16.35;3.90;;;10.10;99.90;;;;;;4896360;29;20521;-86
2023/05/30 00:53:00;;;;;;;13.50;3.70;;;10.40;99.90;;;;;;4897690;29;20060;-86
2023/05/30 00:55:27;;;;;;;14.30;4.07;;;10.10;99.90;;;;;;4897641;29;20425;-87
2023/05/30 00:57:53;;;;;;;13.18;3.70;;;10.10;99.90;;;;;;4896454;29;20052;-87
2023/05/30 01:00:19;;;;;;;11.57;3.75;;;10.10;99.90;;;;;;4896516;29;20489;-87
2023/05/30 01:02:47;;;;;;;14.43;4.38;;;10.20;99.90;;;;;;4897379;29;20433;-86
2023/05/30 01:05:14;;;;;;;14.68;4.25;;;10.10;99.90;;;;;;4897302;29;20488;-87
2023/05/30 01:07:43;;;;;;;14.23;4.65;;;10.20;99.90;;;;;;4897902;29;20048;-86
2023/05/30 01:10:15;;;;;;;14.70;4.05;;;10.20;99.90;;;;;;4897186;29;20060;-86
2023/05/30 01:12:42;;;;;;;13.18;3.70;;;10.20;99.90;;;;;;4898340;29;20132;-86
2023/05/30 01:15:22;;;;;;;13.68;4.30;;;10.20;99.90;;;;;;4897798;29;20053;-86
2023/05/30 01:18:06;;;;;;;16.98;4.00;;;10.30;99.90;;;;;;4896355;29;20054;-86
2023/05/30 01:20:40;;;;;;;13.38;4.30;;;10.20;99.90;;;;;;4897773;29;20371;-86
2023/05/30 01:23:24;;;;;;;14.32;4.35;;;10.30;99.90;;;;;;4898035;29;20044;-86
2023/05/30 01:25:58;;;;;;;;;;;10.30;99.90;;;;;;4896294;29;20056;-86
2023/05/30 01:28:28;;;;;;;13.05;4.32;;;10.30;99.90;;;;;;4897997;29;19919;-86
2023/05/30 01:30:56;;;;;;;15.18;4.25;;;10.30;99.90;;;;;;4897414;29;20052;-86
2023/05/30 01:33:22;;;;;;;15.77;4.28;;;10.80;99.90;;;;;;4896758;29;20509;-87
2023/05/30 01:35:48;;;;;;;15.30;4.97;;;10.40;99.90;;;;;;4896662;29;20089;-86
2023/05/30 01:38:14;;;;;;;14.90;4.20;;;10.40;99.90;;;;;;4897234;29;20127;-86
2023/05/30 01:40:43;;;;;;;15.18;4.60;;;10.50;99.90;;;;;;4897265;29;20036;-86
2023/05/30 01:43:33;;;;;;;16.92;5.07;;;10.40;99.90;;;;;;4896618;29;20052;-86
2023/05/30 01:46:21;;;;;;;14.20;4.03;;;10.40;99.90;;;;;;4897217;29;20048;-86
2023/05/30 01:49:08;;;;;;;12.30;4.20;;;10.40;99.90;;;;;;4896668;29;20503;-86
2023/05/30 01:51:44;;;;;;;11.43;4.43;;;10.40;99.90;;;;;;4897863;29;20053;-86
2023/05/30 01:54:15;;;;;;;12.65;4.00;;;10.40;99.90;;;;;;4897022;29;20045;-86
2023/05/30 01:56:42;;;;;;;16.15;4.03;;;10.40;99.90;;;;;;4898150;29;20103;-87
2023/05/30 01:59:09;;;;;;;17.13;4.47;;;10.40;99.90;;;;;;4896015;29;20044;-86
2023/05/30 02:01:35;;;;;;;19.35;4.40;;;10.40;99.90;;;;;;4895651;29;20056;-86
2023/05/30 02:04:02;;;;;;;12.20;3.88;;;10.40;99.90;;;;;;4896603;29;20104;-86
2023/05/30 02:06:27;;;;;;;16.02;3.95;;;10.30;99.90;;;;;;4894793;29;20060;-86
2023/05/30 02:08:53;;;;;;;18.65;4.38;;;10.30;99.90;;;;;;4899816;29;20397;-86
2023/05/30 02:11:19;;;;;;;11.20;3.90;;;10.30;99.90;;;;;;4899560;29;20063;-86
2023/05/30 02:13:45;;;;;;;13.13;3.75;;;10.30;99.90;;;;;;4900417;29;20172;-86
2023/05/30 02:16:12;;;;;;;13.50;4.22;;;11.10;99.90;;;;;;4900867;29;20064;-86
2023/05/30 02:18:40;;;;;;;9.77;3.75;;;10.30;99.90;;;;;;4901252;29;20055;-86
2023/05/30 02:21:07;;;;;;;14.95;4.25;;;10.30;99.90;;;;;;4899438;29;20048;-86
2023/05/30 02:23:33;;;;;;;14.57;4.15;;;10.30;99.90;;;;;;4900236;29;20416;-86
2023/05/30 02:25:59;;;;;;;13.40;4.38;;;10.30;99.90;;;;;;4900966;29;20053;-86
2023/05/30 02:28:24;;;;;;;17.77;4.50;;;10.90;99.90;;;;;;4900205;29;20045;-86
2023/05/30 02:30:50;;;;;;;11.65;4.00;;;11.00;99.90;;;;;;4900632;29;20485;-86
2023/05/30 02:33:16;;;;;;;13.13;4.35;;;10.30;99.90;;;;;;4901069;29;20037;-86
2023/05/30 02:35:41;;;;;;;12.98;4.40;;;10.50;99.90;;;;;;4900084;29;20520;-86
2023/05/30 02:38:07;;;;;;;17.88;4.63;;;10.20;99.90;;;;;;4899726;29;20052;-86
2023/05/30 02:40:32;;;;;;;14.05;4.30;;;10.20;99.90;;;;;;4901366;29;20607;-86
2023/05/30 02:42:58;;;;;;;12.40;4.82;;;10.80;99.90;;;;;;4900175;29;20045;-86
2023/05/30 02:45:24;;;;;;;14.57;4.45;;;10.40;99.90;;;;;;4900513;29;20083;-86
2023/05/30 02:47:50;;;;;;;15.13;4.90;;;10.20;99.90;;;;;;4901145;29;20054;-86
2023/05/30 02:50:15;;;;;;;13.18;4.20;;;10.20;99.90;;;;;;4899746;29;20124;-86
2023/05/30 02:52:41;;;;;;;15.48;4.65;;;10.20;99.90;;;;;;4899620;29;20104;-86
2023/05/30 02:55:07;;;;;;;15.23;4.75;;;10.20;99.90;;;;;;4899287;29;20050;-86
2023/05/30 02:57:33;;;;;;;14.85;4.47;;;10.20;99.90;;;;;;4900428;29;20079;-86
2023/05/30 03:00:01;;;;;;;13.68;5.00;;;10.20;99.90;;;;;;4901095;29;20048;-86
2023/05/30 03:02:26;;;;;;;14.35;4.22;;;10.20;99.90;;;;;;4898141;29;20044;-87
2023/05/30 03:04:52;;;;;;;13.75;4.28;;;10.20;99.90;;;;;;4899689;29;20048;-86
2023/05/30 03:07:18;;;;;;;15.38;4.63;;;11.00;99.90;;;;;;4900277;29;20126;-86
2023/05/30 03:09:46;;;;;;;16.95;4.72;;;10.30;99.90;;;;;;4899142;29;20457;-86
2023/05/30 03:12:12;;;;;;;14.32;4.68;;;10.30;99.90;;;;;;4899215;29;20477;-86
2023/05/30 03:14:37;;;;;;;14.73;4.82;;;10.20;99.90;;;;;;4899955;29;20048;-86
2023/05/30 03:17:03;;;;;;;13.40;4.68;;;10.30;99.90;;;;;;4898224;29;20127;-86
2023/05/30 03:19:30;;;;;;;15.52;5.03;;;10.30;99.90;;;;;;4898669;29;20564;-86
2023/05/30 03:21:59;;;;;;;14.00;4.13;;;10.20;99.90;;;;;;4898735;29;20544;-86
2023/05/30 03:24:24;;;;;;;16.55;4.78;;;10.30;99.90;;;;;;4899109;29;20454;-86
2023/05/30 03:26:50;;;;;;;14.80;4.80;;;10.20;99.90;;;;;;4900919;29;20040;-86
2023/05/30 03:29:16;;;;;;;15.15;4.53;;;10.30;99.90;;;;;;4900888;29;20049;-86
2023/05/30 03:31:43;;;;;;;12.10;4.22;;;10.30;99.90;;;;;;4899131;29;20104;-86
2023/05/30 03:34:09;;;;;;;13.68;4.20;;;10.30;99.90;;;;;;4898432;29;20048;-86
2023/05/30 03:36:35;;;;;;;15.63;4.40;;;10.30;99.90;;;;;;4898175;29;20064;-86
2023/05/30 03:39:01;;;;;;;17.00;4.82;;;10.30;99.90;;;;;;4898454;29;20558;-86
2023/05/30 03:41:26;;;;;;;15.13;4.35;;;10.40;99.90;;;;;;4898341;29;20133;-86
2023/05/30 03:43:52;;;;;;;13.48;4.20;;;10.40;99.90;;;;;;4898709;29;20100;-86
2023/05/30 03:46:19;;;;;;;14.40;4.40;;;11.10;99.90;;;;;;4899136;29;20048;-86
2023/05/30 03:48:48;;;;;;;12.77;3.97;;;10.30;99.90;;;;;;4898956;29;20079;-86
2023/05/30 03:51:14;;;;;;;13.32;4.10;;;10.30;99.90;;;;;;4898132;29;20048;-86
2023/05/30 03:53:42;;;;;;;11.80;4.07;;;10.30;99.90;;;;;;4899309;29;20092;-86
2023/05/30 03:56:08;;;;;;;13.15;3.80;;;11.00;99.90;;;;;;4899613;29;20045;-86
2023/05/30 03:58:33;;;;;;;12.63;4.15;;;10.40;99.90;;;;;;4898570;29;20107;-86
2023/05/30 04:01:00;;;;;;;13.68;3.92;;;10.40;99.90;;;;;;4898711;29;20176;-85
2023/05/30 04:03:28;;;;;;;16.15;4.55;;;10.40;99.90;;;;;;4899358;29;20048;-86
2023/05/30 04:05:58;;;;;;;14.05;3.92;;;10.40;99.90;;;;;;4898132;29;20386;-85
2023/05/30 04:08:24;;;;;;;14.43;4.32;;;10.80;99.90;;;;;;4898090;29;20401;-86
2023/05/30 04:10:50;;;;;;;12.82;3.95;;;10.50;99.90;;;;;;4899565;29;20041;-86
2023/05/30 04:13:15;;;;;;;13.80;4.25;;;10.50;99.90;;;;;;4898372;29;20044;-86
2023/05/30 04:15:41;;;;;;;18.38;4.55;;;10.50;99.90;;;;;;4899407;29;20143;-86
2023/05/30 04:18:07;;;;;;;15.32;4.50;;;10.50;99.90;;;;;;4899123;29;20051;-85
2023/05/30 04:20:34;;;;;;;12.95;4.40;;;10.50;99.90;;;;;;4898698;29;20062;-86
2023/05/30 04:23:00;;;;;;;15.13;3.90;;;10.50;99.90;;;;;;4898953;29;20048;-85
2023/05/30 04:25:25;;;;;;;16.63;4.32;;;10.50;99.90;;;;;;4899002;29;20060;-86
2023/05/30 04:27:51;;;;;;;14.50;4.43;;;11.00;99.90;;;;;;4897327;29;20044;-86
2023/05/30 04:30:16;;;;;;;11.77;4.00;;;10.60;99.90;;;;;;4897304;29;20108;-86
2023/05/30 04:32:42;;;;;;;16.17;4.43;;;10.70;99.90;;;;;;4897803;29;20140;-86
2023/05/30 04:35:08;;;;;;;14.88;4.43;;;10.70;99.90;;;;;;4896726;29;20378;-86
2023/05/30 04:37:38;;;;;;;13.68;3.78;;;10.80;99.90;;;;;;4897753;29;20048;-85
2023/05/30 04:40:04;;;;;;;14.95;4.47;;;10.80;99.90;;;;;;4899170;29;20049;-86
2023/05/30 04:42:33;;;;;;;14.07;4.53;;;10.90;99.90;;;;;;4897807;29;20359;-86
2023/05/30 04:45:00;;;;;;;14.52;4.13;;;11.00;99.90;;;;;;4898038;29;20047;-86
2023/05/30 04:47:28;;;;;;;12.98;4.15;;;11.00;99.90;;;;;;4898957;29;20059;-85
2023/05/30 04:49:54;;;;;;;13.02;3.85;;;11.10;99.90;;;;;;4898049;29;20116;-85
2023/05/30 04:52:20;;;;;;;10.68;3.88;;;11.00;99.90;;;;;;4896889;29;20061;-86
2023/05/30 04:54:46;;;;;;;16.35;3.95;;;11.10;99.90;;;;;;4899883;29;20052;-87
2023/05/30 04:57:12;;;;;;;15.30;4.05;;;12.00;99.90;;;;;;4907793;29;20045;-87
2023/05/30 04:59:39;;;;;;;18.88;4.68;;;11.30;99.90;;;;;;4905836;29;20036;-87
2023/05/30 05:02:05;;;;;;;13.77;4.50;;;11.60;99.90;;;;;;4897295;29;20055;-86
2023/05/30 05:04:31;;;;;;;15.80;4.32;;;11.40;99.90;;;;;;4913866;29;20056;-86
2023/05/30 05:06:57;;;;;;;13.65;4.18;;;11.60;99.90;;;;;;4898464;29;20048;-86
2023/05/30 05:09:24;;;;;;;16.10;4.20;;;11.50;99.90;;;;;;4896180;29;20048;-86
2023/05/30 05:11:50;;;;;;;16.02;4.05;;;11.50;99.90;;;;;;4896989;29;20453;-86
2023/05/30 05:14:15;;;;;;;12.90;3.72;;;11.50;99.90;;;;;;4896747;29;20080;-86
2023/05/30 05:16:41;;;;;;;11.68;3.75;;;12.20;99.90;;;;;;4897732;29;20472;-86
2023/05/30 05:19:07;;;;;;;17.23;4.28;;;12.00;99.90;;;;;;4896664;29;20493;-86
2023/05/30 05:21:32;;;;;;;14.02;3.97;;;11.50;99.90;;;;;;4898224;29;20127;-86
2023/05/30 05:23:58;;;;;;;16.13;3.95;;;12.10;99.90;;;;;;4896365;29;20049;-86
2023/05/30 05:26:24;;;;;;;13.63;3.83;;;12.20;99.90;;;;;;4897879;29;20052;-86
2023/05/30 05:28:50;;;;;;;13.85;3.70;;;11.50;99.90;;;;;;4898205;29;20049;-85
2023/05/30 05:31:16;;;;;;;15.93;4.10;;;11.50;99.90;;;;;;4897162;29;20405;-86
2023/05/30 05:33:42;;;;;;;16.48;3.80;;;11.60;99.90;;;;;;4897998;29;20060;-86
2023/05/30 05:36:08;;;;;;;10.93;3.83;;;12.50;99.90;;;;;;4896605;29;20052;-86
2023/05/30 05:38:33;;;;;;;15.20;4.13;;;12.40;99.90;;;;;;4896030;29;20057;-85
2023/05/30 05:40:59;;;;;;;15.85;4.00;;;11.80;99.90;;;;;;4897281;29;20095;-86
2023/05/30 05:43:25;;;;;;;12.63;3.50;;;12.30;99.90;;;;;;4897674;29;20080;-85
2023/05/30 05:45:51;;;;;;;17.98;4.75;;;11.80;99.90;;;;;;4896242;29;20048;-86
2023/05/30 05:48:17;;;;;;;13.95;3.45;;;11.90;99.90;;;;;;4896566;29;20052;-85
2023/05/30 05:50:43;;;;;;;17.33;4.03;;;12.90;99.90;;;;;;4896566;29;20493;-86
2023/05/30 05:53:08;;;;;;;10.90;3.50;;;12.40;99.90;;;;;;4904644;29;20028;-86
2023/05/30 05:55:34;;;;;;;12.85;3.50;;;12.10;99.90;;;;;;4922066;29;20037;-86
2023/05/30 05:58:00;;;;;;;13.13;3.35;;;12.10;99.90;;;;;;4905013;29;20056;-86
2023/05/30 06:00:25;;;;;;;15.35;3.60;;;12.10;99.90;;;;;;4900049;29;20053;-87
2023/05/30 06:02:51;;;;;;;13.02;3.30;;;12.20;99.90;;;;;;4896655;29;20393;-86
2023/05/30 06:05:17;;;;;;;13.48;3.55;;;13.10;99.90;;;;;;4895559;29;20053;-86
2023/05/30 06:07:42;;;;;;;12.55;3.38;;;12.50;99.90;;;;;;4897601;29;20052;-86
2023/05/30 06:10:08;;;;;;;13.00;3.40;;;12.70;99.90;;;;;;4896348;29;20032;-86
2023/05/30 06:12:34;;;;;;;11.15;3.60;;;12.30;99.90;;;;;;4895881;29;20049;-86
2023/05/30 06:15:00;;;;;;;13.82;3.55;;;12.80;99.90;;;;;;4897734;29;20060;-86
2023/05/30 06:17:25;;;;;;;10.52;3.53;;;12.40;99.90;;;;;;4896323;29;20108;-86
2023/05/30 06:19:51;;;;;;;14.27;3.60;;;12.40;99.90;;;;;;4895640;29;20084;-85
2023/05/30 06:22:17;;;;;;;12.00;3.40;;;12.50;99.90;;;;;;4896169;29;20061;-87
2023/05/30 06:24:42;;;;;;;14.25;3.50;;;12.50;99.90;;;;;;4896978;29;20061;-85
2023/05/30 06:27:08;;;;;;;14.27;3.78;;;13.30;99.90;;;;;;4896807;29;20087;-86
2023/05/30 06:29:35;;;;;;;9.98;3.40;;;12.50;99.90;;;;;;4896484;29;20490;-86
2023/05/30 06:32:01;;;;;;;11.38;3.17;;;12.50;99.90;;;;;;4896580;29;20058;-86
2023/05/30 06:34:27;;;;;;;12.73;3.03;;;12.90;99.90;;;;;;4896381;29;20056;-86
2023/05/30 06:36:52;;;;;;;14.48;3.58;;;13.40;99.90;;;;;;4896585;29;20052;-86
2023/05/30 06:39:18;;;;;;;12.43;4.00;;;12.50;99.90;;;;;;4897336;29;20049;-87
2023/05/30 06:41:45;;;;;;;13.25;4.15;;;12.90;99.90;;;;;;4896705;29;20420;-86
2023/05/30 06:44:11;;;;;;;10.20;3.53;;;12.40;99.90;;;;;;4896155;29;20104;-86
2023/05/30 06:46:37;;;;;;;12.45;3.25;;;12.50;99.90;;;;;;4896020;29;20476;-86
2023/05/30 06:49:03;;;;;;;11.88;3.25;;;13.10;99.90;;;;;;4895278;29;20177;-85
2023/05/30 06:51:28;;;;;;;13.63;3.63;;;12.40;99.90;;;;;;4896933;29;20049;-86
2023/05/30 06:53:54;;;;;;;12.60;3.05;;;12.40;99.90;;;;;;4899019;29;20033;-86
2023/05/30 06:56:20;;;;;;;13.00;3.20;;;12.40;99.90;;;;;;4899907;29;20044;-86
2023/05/30 06:58:45;;;;;;;8.43;3.03;;;12.90;99.90;;;;;;4900772;29;20130;-86
2023/05/30 07:01:11;;;;;;;11.70;3.47;;;13.20;99.90;;;;;;4900316;29;20044;-81
2023/05/30 07:03:37;;;;;;;12.57;3.38;;;13.00;99.90;;;;;;4900202;29;20055;-81
2023/05/30 07:06:03;;;;;;;11.82;3.50;;;12.40;99.90;;;;;;4899458;29;20068;-81
2023/05/30 07:08:28;;;;;;;9.43;3.40;;;12.40;99.90;;;;;;4899441;29;20474;-81
2023/05/30 07:10:55;;;;;;;11.68;2.92;;;12.80;99.90;;;;;;4900640;29;20052;-81
2023/05/30 07:13:20;;;;;;;9.05;2.72;;;12.40;99.90;;;;;;4914792;29;20044;-81
2023/05/30 07:15:47;;;;;;;13.05;3.10;;;12.40;99.90;;;;;;4898578;29;20135;-81
2023/05/30 07:18:13;;;;;;;10.70;3.80;;;13.00;99.90;;;;;;4898845;29;20082;-82
2023/05/30 07:20:39;;;;;;;10.40;3.00;;;12.50;99.90;;;;;;4899103;29;20044;-82
2023/05/30 07:23:04;;;;;;;10.18;3.17;;;12.60;99.90;;;;;;4899638;29;20104;-82
2023/05/30 07:25:30;;;;;;;11.55;2.83;;;13.40;99.90;;;;;;4900163;29;20052;-81
2023/05/30 07:27:56;;;;;;;11.85;2.90;;;12.50;99.90;;;;;;4900220;29;20386;-81
2023/05/30 07:30:22;;;;;;;9.45;3.28;;;12.40;99.90;;;;;;4899339;29;20044;-81
2023/05/30 07:32:47;;;;;;;10.85;2.90;;;12.40;99.90;;;;;;4900116;29;20063;-81
2023/05/30 07:35:13;;;;;;;10.20;3.10;;;12.40;99.90;;;;;;4900115;29;20048;-81
2023/05/30 07:37:38;;;;;;;10.95;3.35;;;12.40;99.90;;;;;;4899350;29;20062;-81
2023/05/30 07:40:05;;;;;;;8.75;2.75;;;12.40;99.90;;;;;;4900198;29;20044;-82
2023/05/30 07:42:32;;;;;;;10.18;3.10;;;12.50;99.90;;;;;;4900068;29;20041;-81
2023/05/30 07:44:58;;;;;;;11.32;3.40;;;12.50;99.90;;;;;;4899320;29;20051;-81
2023/05/30 07:47:23;;;;;;;9.15;3.00;;;12.40;99.90;;;;;;4899665;29;20413;-82
2023/05/30 07:49:49;;;;;;;11.10;3.70;;;12.40;99.90;;;;;;4900131;29;20076;-81
2023/05/30 07:52:15;;;;;;;11.18;3.35;;;12.80;99.90;;;;;;4897321;29;20481;-81
2023/05/30 07:54:40;;;;;;;9.45;3.22;;;12.40;99.90;;;;;;4899757;29;20049;-82
2023/05/30 07:57:06;;;;;;;10.95;3.35;;;12.50;99.90;;;;;;4913990;29;20040;-81
2023/05/30 07:59:32;;;;;;;11.98;3.25;;;13.20;99.90;;;;;;4897921;29;20387;-82
2023/05/30 08:01:58;;;;;;;11.63;3.53;;;12.50;99.90;;;;;;4899918;29;20053;-81
2023/05/30 08:04:23;;;;;;;11.25;3.60;;;12.50;99.90;;;;;;4897725;29;20044;-82
2023/05/30 08:06:49;;;;;;;10.27;3.47;;;12.60;99.90;;;;;;4897754;29;20107;-82
2023/05/30 08:09:16;;;;;;;13.80;3.88;;;12.60;99.90;;;;;;4898228;29;20041;-81
2023/05/30 08:11:41;;;;;;;11.13;3.50;;;12.60;99.90;;;;;;4897368;29;20053;-81
2023/05/30 08:14:07;;;;;;;9.98;3.45;;;12.80;99.90;;;;;;4898079;29;20200;-81
2023/05/30 08:16:32;;;;;;;10.25;3.50;;;12.50;99.90;;;;;;4897857;29;20068;-81
2023/05/30 08:18:58;;;;;;;10.95;3.00;;;13.00;99.90;;;;;;4897258;29;20597;-81
2023/05/30 08:21:26;;;;;;;10.30;3.13;;;12.50;99.90;;;;;;4898983;29;20131;-81
2023/05/30 08:23:52;;;;;;;9.65;3.05;;;12.60;99.90;;;;;;4898327;29;20122;-82
2023/05/30 08:26:18;;;;;;;11.55;3.55;;;12.60;99.90;;;;;;4897047;29;20060;-81
2023/05/30 08:28:43;;;;;;;12.55;4.00;;;12.60;99.90;;;;;;4899354;29;20044;-81
2023/05/30 08:31:09;;;;;;;13.80;3.92;;;13.30;99.90;;;;;;4897548;29;20131;-81
2023/05/30 08:33:36;;;;;;;15.20;4.10;;;13.40;99.90;;;;;;4898549;29;20598;-81
2023/05/30 08:36:02;;;;;;;12.82;4.03;;;12.60;99.90;;;;;;4897972;29;20052;-81
2023/05/30 08:38:27;;;;;;;11.13;4.10;;;12.60;99.90;;;;;;4898843;29;20040;-81
2023/05/30 08:40:53;;;;;;;10.73;3.85;;;12.50;99.90;;;;;;4897410;29;20425;-81
2023/05/30 08:43:19;;;;;;;10.82;4.00;;;12.80;99.90;;;;;;4898581;29;20036;-81
2023/05/30 08:45:46;;;;;;;13.20;3.92;;;12.60;99.90;;;;;;4899050;29;20096;-81
2023/05/30 08:48:16;;;;;;;14.27;4.10;;;12.70;99.90;;;;;;4898011;29;20048;-81
2023/05/30 08:50:42;;;;;;;13.23;3.67;;;12.80;99.90;;;;;;4897551;29;20091;-81
2023/05/30 08:53:11;;;;;;;10.60;3.70;;;13.40;99.90;;;;;;4911291;29;20077;-81
2023/05/30 08:55:48;;;;;;;9.30;3.70;;;13.00;99.90;;;;;;4915377;29;20045;-81
2023/05/30 08:58:22;;;;;;;11.57;3.67;;;13.40;99.90;;;;;;4897414;29;20056;-81
2023/05/30 09:00:49;;;;;;;9.75;3.38;;;12.90;99.90;;;;;;4898886;29;20048;-81
2023/05/30 09:03:15;;;;;;;13.32;3.95;;;13.30;99.90;;;;;;4897840;29;20052;-81
2023/05/30 09:05:45;;;;;;;10.93;3.55;;;13.70;99.90;;;;;;4898686;29;20044;-81
2023/05/30 09:08:12;;;;;;;10.38;3.35;;;12.90;99.90;;;;;;4897597;29;20123;-81
2023/05/30 09:10:42;;;;;;;9.02;3.13;;;13.70;99.90;;;;;;4897155;29;20509;-81
2023/05/30 09:13:09;;;;;;;12.82;3.20;;;13.10;99.90;;;;;;4898315;29;20131;-81
2023/05/30 09:15:35;;;;;;;10.63;3.50;;;13.10;99.90;;;;;;4896000;29;20061;-81
2023/05/30 09:18:01;;;;;;;10.63;3.40;;;13.80;99.90;;;;;;4897604;29;20551;-81
2023/05/30 09:20:31;;;;;;;9.90;3.03;;;13.20;99.90;;;;;;4896933;29;20057;-81
2023/05/30 09:22:57;;;;;;;9.70;2.83;;;13.60;99.90;;;;;;4896368;29;20041;-81
2023/05/30 09:25:22;;;;;;;10.10;2.95;;;13.10;99.90;;;;;;4896908;29;20135;-82
2023/05/30 09:27:52;;;;;;;8.38;2.88;;;13.10;99.90;;;;;;4898297;29;20132;-81
2023/05/30 09:30:18;;;;;;;8.73;3.15;;;13.10;99.90;;;;;;4897148;29;20040;-81
2023/05/30 09:33:00;;;;;;;8.52;2.92;;;13.10;99.90;;;;;;4896652;29;20045;-80
2023/05/30 09:35:25;;;;;;;11.52;3.10;;;13.10;99.90;;;;;;4896317;29;20060;-81
2023/05/30 09:37:51;;;;;;;9.13;3.08;;;12.90;99.90;;;;;;4897341;29;20040;-81
2023/05/30 09:40:17;;;;;;;8.88;2.95;;;12.90;99.90;;;;;;4896411;29;20139;-81
2023/05/30 09:42:50;;;;;;;8.32;2.95;;;12.90;99.90;;;;;;4896890;29;20386;-81
2023/05/30 09:45:20;;;;;;;8.63;2.92;;;12.80;99.90;;;;;;4895613;29;20065;-81
2023/05/30 09:47:47;;;;;;;12.80;3.45;;;12.80;99.90;;;;;;4896410;29;20135;-82
2023/05/30 09:50:18;;;;;;;9.95;3.20;;;12.90;99.90;;;;;;4895535;29;20063;-82
2023/05/30 09:52:48;;;;;;;8.70;2.83;;;14.00;99.90;;;;;;4896309;29;20057;-82
2023/05/30 09:55:14;;;;;;;10.30;3.55;;;13.80;99.90;;;;;;4897646;29;20040;-81
2023/05/30 09:57:44;;;;;;;9.40;3.15;;;13.10;99.90;;;;;;4897243;29;20055;-82
2023/05/30 10:00:13;;;;;;;9.07;3.10;;;13.60;99.90;;;;;;4896450;29;20489;-81
2023/05/30 10:02:40;;;;;;;8.70;3.10;;;13.20;99.90;;;;;;4897794;29;20049;-82
2023/05/30 10:05:16;;;;;;;8.02;3.00;;;13.20;99.90;;;;;;4896999;29;20120;-81
2023/05/30 10:07:42;;;;;;;7.97;2.90;;;13.20;99.90;;;;;;4897832;29;20108;-81
2023/05/30 10:10:08;;;;;;;9.93;3.10;;;13.10;99.90;;;;;;4911775;29;20036;-81
2023/05/30 10:12:34;;;;;;;9.30;2.80;;;13.10;99.90;;;;;;4895420;29;20149;-82
2023/05/30 10:15:00;;;;;;;8.73;3.00;;;13.00;99.90;;;;;;4896052;29;20521;-81
2023/05/30 10:17:31;;;;;;;8.57;2.90;;;13.80;99.90;;;;;;4896355;29;20200;-81
2023/05/30 10:20:05;;;;;;;8.05;2.80;;;13.10;99.90;;;;;;4895573;29;20083;-82
2023/05/30 10:22:39;;;;;;;9.48;2.75;;;13.10;99.90;;;;;;4896361;29;20058;-81
2023/05/30 10:25:06;;;;;;;9.23;2.75;;;14.00;99.90;;;;;;4897933;29;20048;-82
2023/05/30 10:27:43;;;;;;;8.38;2.70;;;13.30;99.90;;;;;;4897640;29;20048;-81
2023/05/30 10:30:11;;;;;;;8.57;2.88;;;13.40;99.90;;;;;;4901066;29;20555;-81
2023/05/30 10:32:41;;;;;;;7.90;2.72;;;13.50;99.90;;;;;;4899218;29;20048;-82
2023/05/30 10:35:14;;;;;;;8.90;2.72;;;14.60;99.90;;;;;;4901247;29;20040;-82
2023/05/30 10:37:41;;;;;;;7.05;2.65;;;14.20;99.90;;;;;;4899802;29;20118;-82
2023/05/30 10:40:21;;;;;;;7.20;2.63;;;14.80;99.90;;;;;;4898834;29;20107;-81
2023/05/30 10:42:53;;;;;;;8.40;2.70;;;15.00;99.90;;;;;;4900133;29;20493;-81
2023/05/30 10:45:26;;;;;;;7.00;2.20;;;14.30;99.90;;;;;;4899423;29;20057;-82
2023/05/30 10:48:08;;;;;;;6.80;2.22;;;14.20;99.90;;;;;;4915045;29;20051;-82
2023/05/30 10:50:39;;;;;;;6.95;2.30;;;15.00;99.90;;;;;;4899914;29;20048;-82
2023/05/30 10:53:18;;;;;;;5.82;1.92;;;14.40;99.90;;;;;;4899870;29;20059;-81
2023/05/30 10:55:47;;;;;;;6.43;2.10;;;14.10;99.90;;;;;;4899245;29;20044;-81
2023/05/30 10:58:41;;;;;;;7.80;2.00;;;14.30;99.90;;;;;;4899217;29;20053;-82
2023/05/30 11:01:26;;;;;;;;;;;14.10;99.90;;;;;;4900068;29;20099;-82
2023/05/30 11:04:06;;;;;;;6.63;2.20;;;14.10;99.90;;;;;;4900671;29;19923;-82
2023/05/30 11:06:40;;;;;;;8.18;1.92;;;14.10;99.90;;;;;;4900625;29;20048;-81
2023/05/30 11:09:11;;;;;;;5.15;1.90;;;15.00;99.90;;;;;;4898426;29;20075;-81
2023/05/30 11:11:54;;;;;;;6.65;2.00;;;15.20;99.90;;;;;;4899302;29;20056;-82
2023/05/30 11:14:31;;;;;;;6.68;2.20;;;14.40;99.90;;;;;;4900457;29;20072;-81
2023/05/30 11:17:03;;;;;;;6.78;2.30;;;14.40;99.90;;;;;;4899879;29;20082;-82
2023/05/30 11:19:49;;;;;;;5.75;2.10;;;14.40;99.90;;;;;;4900180;29;20119;-81
2023/05/30 11:22:15;;;;;;;6.55;2.25;;;15.20;99.90;;;;;;4898000;29;20048;-82
2023/05/30 11:24:43;;;;;;;6.93;2.00;;;14.70;99.90;;;;;;4899346;29;20053;-81
2023/05/30 11:27:10;;;;;;;8.35;2.00;;;14.70;99.90;;;;;;4898807;29;20052;-82
2023/05/30 11:29:51;;;;;;;6.32;2.47;;;14.70;99.90;;;;;;4899718;29;20049;-82
2023/05/30 11:32:19;;;;;;;6.75;2.15;;;14.70;99.90;;;;;;4900023;29;20139;-81
2023/05/30 11:34:56;;;;;;;6.68;2.33;;;14.70;99.90;;;;;;4899090;29;20238;-81
2023/05/30 11:37:22;;;;;;;6.25;2.20;;;15.10;99.90;;;;;;4899094;29;20049;-81
2023/05/30 11:39:48;;;;;;;7.13;2.40;;;15.30;99.90;;;;;;4899442;29;20116;-81
2023/05/30 11:42:13;;;;;;;7.60;2.85;;;14.70;99.90;;;;;;4899851;29;20467;-81
2023/05/30 11:44:41;;;;;;;8.70;2.60;;;14.60;99.90;;;;;;4898931;29;20045;-81
2023/05/30 11:47:10;;;;;;;7.13;2.50;;;14.60;99.90;;;;;;4899797;29;20116;-82
2023/05/30 11:49:36;;;;;;;7.57;2.28;;;14.60;99.90;;;;;;4900343;29;20056;-82
2023/05/30 11:52:02;;;;;;;7.75;2.40;;;15.30;99.90;;;;;;4901481;29;20060;-81
2023/05/30 11:54:27;;;;;;;7.22;2.42;;;14.70;99.90;;;;;;4907135;29;20040;-81
2023/05/30 11:56:56;;;;;;;8.27;2.50;;;14.80;99.90;;;;;;4900298;29;20493;-81
2023/05/30 11:59:26;;;;;;;8.15;2.40;;;15.60;99.90;;;;;;4899673;29;20393;-81
2023/05/30 12:01:54;;;;;;;7.43;2.40;;;14.80;99.90;;;;;;4898852;29;20131;-81
2023/05/30 12:04:21;;;;;;;7.78;2.83;;;14.90;99.90;;;;;;4898827;29;20044;-81
2023/05/30 12:06:46;;;;;;;6.05;2.17;;;14.90;99.90;;;;;;4899550;29;20095;-81
2023/05/30 12:09:12;;;;;;;7.82;2.47;;;15.00;99.90;;;;;;4898370;29;20044;-81
2023/05/30 12:11:48;;;;;;;6.15;2.30;;;14.90;99.90;;;;;;4898826;29;20044;-82
2023/05/30 12:14:14;;;;;;;6.72;2.50;;;14.90;99.90;;;;;;4913925;29;20055;-81
2023/05/30 12:16:40;;;;;;;7.60;2.50;;;14.90;99.90;;;;;;4897993;29;20048;-82
2023/05/30 12:19:06;;;;;;;7.63;2.40;;;14.90;99.90;;;;;;4898582;29;20040;-82
2023/05/30 12:21:36;;;;;;;7.43;2.30;;;15.00;99.90;;;;;;4898243;29;20049;-82
2023/05/30 12:24:08;;;;;;;6.50;2.40;;;14.70;99.90;;;;;;4898555;29;20115;-81
2023/05/30 12:26:33;;;;;;;6.70;2.38;;;14.80;99.90;;;;;;4898599;29;20048;-81
2023/05/30 12:29:06;;;;;;;7.80;2.60;;;14.70;99.90;;;;;;4899318;29;20052;-81
2023/05/30 12:31:33;;;;;;;7.55;2.53;;;14.80;99.90;;;;;;4899043;29;20452;-81
2023/05/30 12:34:02;;;;;;;7.90;2.67;;;14.70;99.90;;;;;;4898542;29;20065;-82
2023/05/30 12:36:28;;;;;;;6.95;2.45;;;15.40;99.90;;;;;;4898625;29;20049;-81
2023/05/30 12:38:58;;;;;;;7.55;2.50;;;14.90;99.90;;;;;;4897502;29;20143;-82
2023/05/30 12:41:31;;;;;;;6.68;2.47;;;15.60;99.90;;;;;;4899031;29;20422;-81
2023/05/30 12:43:57;;;;;;;6.85;2.47;;;15.60;99.90;;;;;;4898007;29;20116;-82